createdAt,value
2023-04-10T00:00:02.226Z,7.15
2023-04-10T00:02:33.130Z,7.15
2023-04-10T00:05:01.716Z,7.03
2023-04-10T00:07:30.117Z,7.06
2023-04-10T00:09:58.085Z,7.04
2023-04-10T00:12:26.697Z,6.80
2023-04-10T00:14:56.022Z,6.66
2023-04-10T00:17:25.779Z,6.62
2023-04-10T00:19:53.776Z,6.58
2023-04-10T00:22:22.182Z,6.67
2023-04-10T00:24:51.798Z,6.73
2023-04-10T00:27:19.789Z,6.67
2023-04-10T00:29:48.117Z,6.67
2023-04-10T00:32:16.124Z,6.73
2023-04-10T00:34:47.858Z,6.73
2023-04-10T00:37:16.325Z,6.58
2023-04-10T00:39:44.818Z,6.52
2023-04-10T00:42:13.255Z,6.41
2023-04-10T00:44:44.618Z,6.39
2023-04-10T00:47:13.940Z,6.34
2023-04-10T00:49:42.111Z,6.40
2023-04-10T00:52:14.441Z,6.22
2023-04-10T00:54:43.004Z,6.14
2023-04-10T00:57:11.418Z,6.08
2023-04-10T00:59:40.231Z,5.99
2023-04-10T01:02:08.490Z,5.92
2023-04-10T01:04:38.088Z,5.90
2023-04-10T01:07:11.740Z,5.74
2023-04-10T01:09:47.364Z,5.83
2023-04-10T01:12:27.079Z,5.87
2023-04-10T01:15:03.355Z,5.87
2023-04-10T01:17:33.582Z,5.92
2023-04-10T01:20:08.387Z,5.82
2023-04-10T01:22:38.123Z,5.73
2023-04-10T01:25:30.056Z,5.46
2023-04-10T01:28:06.775Z,5.42
2023-04-10T01:30:38.378Z,5.51
2023-04-10T01:33:08.299Z,5.60
2023-04-10T01:35:36.373Z,5.31
2023-04-10T01:38:06.748Z,5.11
2023-04-10T01:40:36.510Z,5.24
2023-04-10T01:43:07.771Z,5.60
2023-04-10T01:45:46.509Z,5.72
2023-04-10T01:48:16.826Z,5.69
2023-04-10T01:50:45.513Z,5.54
2023-04-10T01:53:14.826Z,5.42
2023-04-10T01:55:44.312Z,5.36
2023-04-10T01:58:14.013Z,5.27
2023-04-10T02:00:43.663Z,5.25
2023-04-10T02:03:15.205Z,5.23
2023-04-10T02:05:50.783Z,5.16
2023-04-10T02:08:21.822Z,5.13
2023-04-10T02:10:53.591Z,5.19
2023-04-10T02:13:23.452Z,5.08
2023-04-10T02:15:52.322Z,4.92
2023-04-10T02:18:23.476Z,4.70
2023-04-10T02:20:52.839Z,4.75
2023-04-10T02:23:21.221Z,4.79
2023-04-10T02:25:49.268Z,4.89
2023-04-10T02:28:17.263Z,4.98
2023-04-10T02:30:45.078Z,5.19
2023-04-10T02:33:14.394Z,5.28
2023-04-10T02:35:45.596Z,5.39
2023-04-10T02:38:15.578Z,5.40
2023-04-10T02:40:46.300Z,5.56
2023-04-10T02:43:16.454Z,5.60
2023-04-10T02:45:44.431Z,5.55
2023-04-10T02:48:16.083Z,5.66
2023-04-10T02:50:47.040Z,5.70
2023-04-10T02:53:15.799Z,5.56
2023-04-10T02:55:44.212Z,5.41
2023-04-10T02:58:14.887Z,5.48
2023-04-10T03:00:48.691Z,5.55
2023-04-10T03:03:21.350Z,5.53
2023-04-10T03:05:55.423Z,5.55
2023-04-10T03:08:30.417Z,5.54
2023-04-10T03:10:58.468Z,5.65
2023-04-10T03:13:27.196Z,5.77
2023-04-10T03:15:55.727Z,5.83
2023-04-10T03:18:24.349Z,5.79
2023-04-10T03:20:55.505Z,5.89
2023-04-10T03:23:23.520Z,5.88
2023-04-10T03:25:52.816Z,5.76
2023-04-10T03:28:22.975Z,5.77
2023-04-10T03:30:51.539Z,5.72
2023-04-10T03:33:19.531Z,5.65
2023-04-10T03:35:48.056Z,5.60
2023-04-10T03:38:17.492Z,5.62
2023-04-10T03:40:45.525Z,5.59
2023-04-10T03:43:13.650Z,5.55
2023-04-10T03:45:41.609Z,5.61
2023-04-10T03:48:09.673Z,5.52
2023-04-10T03:50:44.624Z,5.62
2023-04-10T03:53:12.869Z,5.53
2023-04-10T03:55:43.018Z,5.49
2023-04-10T03:58:10.992Z,5.49
2023-04-10T04:00:39.278Z,5.55
2023-04-10T04:03:14.265Z,5.46
2023-04-10T04:06:02.869Z,5.29
2023-04-10T04:08:36.204Z,5.34
2023-04-10T04:11:25.873Z,5.33
2023-04-10T04:14:07.326Z,5.32
2023-04-10T04:16:48.105Z,5.31
2023-04-10T04:19:45.332Z,5.38
2023-04-10T04:22:22.954Z,5.35
2023-04-10T04:25:11.021Z,5.53
2023-04-10T04:28:04.612Z,5.50
2023-04-10T04:30:37.197Z,5.38
2023-04-10T04:33:11.955Z,5.43
2023-04-10T04:35:59.357Z,5.40
2023-04-10T04:38:39.349Z,5.50
2023-04-10T04:41:27.323Z,5.65
2023-04-10T04:44:08.274Z,5.76
2023-04-10T04:46:58.013Z,5.73
2023-04-10T04:49:52.384Z,5.80
2023-04-10T04:52:24.060Z,5.74
2023-04-10T04:55:18.269Z,5.67
2023-04-10T04:58:00.255Z,5.65
2023-04-10T05:00:55.385Z,5.56
2023-04-10T05:03:51.490Z,5.53
2023-04-10T05:06:37.621Z,5.71
2023-04-10T05:09:24.077Z,6.00
2023-04-10T05:12:10.807Z,6.09
2023-04-10T05:14:53.799Z,6.14
2023-04-10T05:17:29.453Z,6.09
2023-04-10T05:20:22.139Z,6.15
2023-04-10T05:23:12.068Z,6.41
2023-04-10T05:25:59.191Z,6.29
2023-04-10T05:28:46.169Z,6.59
2023-04-10T05:31:33.496Z,6.67
2023-04-10T05:34:39.597Z,6.82
2023-04-10T05:37:28.603Z,6.87
2023-04-10T05:40:04.990Z,6.84
2023-04-10T05:42:33.439Z,6.83
2023-04-10T05:45:15.363Z,6.75
2023-04-10T05:48:06.210Z,6.85
2023-04-10T05:50:45.811Z,6.96
2023-04-10T05:53:36.654Z,6.98
2023-04-10T05:56:23.531Z,7.22
2023-04-10T05:59:10.816Z,7.33
2023-04-10T06:01:59.424Z,7.47
2023-04-10T06:04:28.051Z,7.68
2023-04-10T06:07:00.570Z,7.79
2023-04-10T06:09:29.328Z,8.16
2023-04-10T06:11:57.853Z,8.01
2023-04-10T06:14:27.453Z,8.07
2023-04-10T06:16:58.068Z,8.06
2023-04-10T06:19:26.815Z,8.08
2023-04-10T06:21:54.786Z,8.38
2023-04-10T06:24:25.502Z,8.51
2023-04-10T06:26:57.257Z,8.39
2023-04-10T06:29:25.662Z,8.69
2023-04-10T06:31:54.115Z,8.61
2023-04-10T06:34:22.916Z,8.86
2023-04-10T06:36:57.552Z,8.89
2023-04-10T06:39:28.386Z,8.92
2023-04-10T06:41:57.837Z,8.99
2023-04-10T06:44:41.883Z,9.00
2023-04-10T06:47:10.544Z,9.21
2023-04-10T06:49:38.619Z,9.42
2023-04-10T06:52:06.895Z,9.92
2023-04-10T06:54:36.975Z,10.16
2023-04-10T06:57:05.723Z,10.60
2023-04-10T06:59:35.539Z,10.93
2023-04-10T07:02:04.304Z,10.77
2023-04-10T07:04:32.668Z,10.65
2023-04-10T07:07:00.675Z,10.72
2023-04-10T07:09:28.639Z,10.66
2023-04-10T07:11:58.237Z,11.01
2023-04-10T07:14:26.390Z,10.97
2023-04-10T07:16:54.778Z,10.94
2023-04-10T07:19:23.103Z,11.40
2023-04-10T07:21:51.169Z,11.53
2023-04-10T07:24:19.584Z,11.61
2023-04-10T07:26:47.814Z,11.68
2023-04-10T07:29:17.555Z,11.83
2023-04-10T07:31:46.080Z,12.07
2023-04-10T07:34:14.161Z,12.18
2023-04-10T07:36:42.049Z,12.37
2023-04-10T07:39:09.694Z,12.35
2023-04-10T07:41:37.518Z,12.78
2023-04-10T07:44:05.469Z,13.03
2023-04-10T07:46:34.866Z,13.68
2023-04-10T07:49:02.836Z,13.89
2023-04-10T07:51:30.964Z,13.90
2023-04-10T07:53:58.815Z,14.65
2023-04-10T07:56:26.424Z,14.89
2023-04-10T07:58:54.357Z,15.62
2023-04-10T08:01:22.432Z,15.68
2023-04-10T08:03:52.151Z,15.69
2023-04-10T08:06:20.429Z,16.39
2023-04-10T08:08:49.780Z,16.81
2023-04-10T08:11:24.624Z,16.67
2023-04-10T08:13:52.955Z,16.71
2023-04-10T08:16:22.172Z,16.74
2023-04-10T08:18:51.807Z,16.79
2023-04-10T08:21:20.414Z,16.52
2023-04-10T08:23:48.469Z,16.78
2023-04-10T08:26:16.595Z,17.20
2023-04-10T08:28:47.441Z,17.40
2023-04-10T08:31:15.512Z,16.99
2023-04-10T08:33:43.223Z,16.76
2023-04-10T08:36:16.522Z,16.78
2023-04-10T08:38:46.748Z,16.77
2023-04-10T08:41:15.757Z,16.53
2023-04-10T08:43:45.829Z,16.58
2023-04-10T08:46:14.591Z,16.77
2023-04-10T08:48:46.679Z,17.23
2023-04-10T08:51:20.341Z,17.73
2023-04-10T08:53:51.874Z,18.32
2023-04-10T08:56:20.351Z,18.33
2023-04-10T08:58:48.024Z,18.65
2023-04-10T09:01:16.195Z,18.62
2023-04-10T09:03:43.884Z,18.92
2023-04-10T09:06:11.689Z,19.12
2023-04-10T09:08:41.464Z,19.63
2023-04-10T09:11:09.085Z,18.81
2023-04-10T09:13:38.293Z,18.17
2023-04-10T09:16:06.634Z,18.33
2023-04-10T09:18:45.494Z,18.98
2023-04-10T09:21:15.272Z,19.61
2023-04-10T09:23:45.686Z,20.01
2023-04-10T09:26:26.855Z,20.05
2023-04-10T09:28:59.133Z,19.95
2023-04-10T09:31:34.258Z,20.33
2023-04-10T09:34:08.725Z,20.39
2023-04-10T09:36:37.191Z,20.57
2023-04-10T09:39:06.491Z,20.70
2023-04-10T09:41:34.827Z,21.04
2023-04-10T09:44:08.890Z,21.69
2023-04-10T09:46:36.979Z,21.27
2023-04-10T09:49:07.511Z,21.17
2023-04-10T09:51:36.704Z,21.73
2023-04-10T09:54:06.786Z,23.31
2023-04-10T09:56:37.461Z,24.67
2023-04-10T09:59:07.824Z,25.36
2023-04-10T10:01:36.619Z,24.73
2023-04-10T10:04:05.561Z,24.22
2023-04-10T10:06:35.070Z,24.33
2023-04-10T10:09:04.460Z,23.84
2023-04-10T10:11:35.364Z,23.89
2023-04-10T10:14:04.832Z,24.67
2023-04-10T10:16:36.142Z,25.61
2023-04-10T10:19:07.790Z,26.78
2023-04-10T10:21:36.722Z,28.30
2023-04-10T10:24:08.559Z,28.95
2023-04-10T10:26:40.182Z,29.80
2023-04-10T10:29:10.974Z,30.23
2023-04-10T10:31:39.902Z,28.47
2023-04-10T10:34:09.332Z,28.41
2023-04-10T10:36:37.859Z,29.46
2023-04-10T10:39:14.219Z,30.34
2023-04-10T10:41:45.948Z,31.39
2023-04-10T10:44:16.140Z,29.96
2023-04-10T10:46:47.777Z,32.15
2023-04-10T10:49:15.907Z,32.65
2023-04-10T10:51:44.989Z,31.01
2023-04-10T10:54:35.230Z,30.90
2023-04-10T10:57:08.041Z,32.68
2023-04-10T10:59:53.846Z,32.76
2023-04-10T11:02:22.548Z,33.32
2023-04-10T11:04:50.911Z,31.92
2023-04-10T11:07:19.130Z,31.59
2023-04-10T11:09:52.011Z,31.42
2023-04-10T11:12:23.210Z,32.24
2023-04-10T11:15:01.395Z,33.49
2023-04-10T11:17:49.018Z,34.24
2023-04-10T11:20:17.272Z,36.03
2023-04-10T11:23:03.868Z,36.31
2023-04-10T11:25:46.892Z,36.17
2023-04-10T11:28:34.550Z,36.81
2023-04-10T11:31:15.164Z,35.00
2023-04-10T11:33:43.568Z,35.57
2023-04-10T11:36:16.450Z,36.09
2023-04-10T11:38:54.852Z,35.23
2023-04-10T11:41:27.325Z,35.50
2023-04-10T11:43:56.658Z,33.81
2023-04-10T11:46:24.813Z,32.66
2023-04-10T11:48:57.173Z,31.95
2023-04-10T11:51:25.241Z,31.21
2023-04-10T11:54:05.516Z,30.85
2023-04-10T11:56:33.389Z,31.39
2023-04-10T11:59:07.643Z,31.42
2023-04-10T12:01:36.596Z,32.56
2023-04-10T12:04:04.652Z,32.42
2023-04-10T12:06:33.171Z,31.39
2023-04-10T12:09:01.343Z,31.54
2023-04-10T12:11:29.875Z,30.30
2023-04-10T12:13:58.430Z,28.36
2023-04-10T12:16:27.878Z,28.09
2023-04-10T12:18:56.927Z,28.80
2023-04-10T12:21:26.396Z,30.27
2023-04-10T12:23:54.586Z,31.85
2023-04-10T12:26:22.710Z,32.96
2023-04-10T12:28:52.046Z,32.83
2023-04-10T12:31:20.468Z,32.17
2023-04-10T12:33:49.944Z,30.90
2023-04-10T12:36:21.415Z,31.87
2023-04-10T12:38:49.214Z,34.42
2023-04-10T12:41:22.246Z,33.85
2023-04-10T12:43:50.137Z,32.52
2023-04-10T12:46:24.653Z,33.44
2023-04-10T12:48:54.273Z,33.17
2023-04-10T12:51:42.082Z,32.24
2023-04-10T12:54:09.810Z,31.52
2023-04-10T12:56:44.547Z,31.57
2023-04-10T12:59:12.751Z,31.24
2023-04-10T13:01:40.736Z,30.10
2023-04-10T13:04:10.302Z,30.34
2023-04-10T13:06:43.946Z,31.59
2023-04-10T13:09:12.247Z,31.18
2023-04-10T13:11:40.595Z,31.80
2023-04-10T13:14:08.624Z,31.43
2023-04-10T13:16:36.938Z,30.75
2023-04-10T13:19:04.928Z,31.03
2023-04-10T13:21:34.405Z,30.31
2023-04-10T13:24:02.033Z,30.51
2023-04-10T13:26:29.754Z,30.01
2023-04-10T13:28:57.642Z,28.99
2023-04-10T13:31:25.470Z,28.66
2023-04-10T13:33:53.538Z,29.04
2023-04-10T13:36:21.409Z,28.73
2023-04-10T13:38:50.908Z,28.70
2023-04-10T13:41:20.524Z,28.95
2023-04-10T13:43:48.236Z,27.83
2023-04-10T13:46:16.764Z,27.89
2023-04-10T13:48:44.991Z,28.15
2023-04-10T13:51:12.765Z,28.40
2023-04-10T13:53:40.624Z,28.33
2023-04-10T13:56:10.433Z,29.05
2023-04-10T13:58:38.413Z,29.20
2023-04-10T14:01:06.548Z,28.91
2023-04-10T14:03:34.544Z,29.33
2023-04-10T14:06:02.411Z,30.36
2023-04-10T14:08:30.320Z,30.26
2023-04-10T14:10:58.161Z,30.11
2023-04-10T14:13:27.718Z,29.98
2023-04-10T14:15:55.786Z,29.84
2023-04-10T14:18:23.707Z,29.42
2023-04-10T14:20:54.513Z,29.34
2023-04-10T14:23:22.702Z,29.62
2023-04-10T14:25:51.406Z,30.25
2023-04-10T14:28:19.229Z,31.54
2023-04-10T14:30:49.369Z,30.39
2023-04-10T14:33:19.645Z,30.56
2023-04-10T14:35:48.485Z,29.58
2023-04-10T14:38:16.906Z,29.74
2023-04-10T14:40:46.644Z,29.58
2023-04-10T14:43:14.724Z,28.94
2023-04-10T14:45:42.643Z,27.58
2023-04-10T14:48:12.821Z,26.94
2023-04-10T14:50:41.867Z,27.94
2023-04-10T14:53:10.797Z,26.99
2023-04-10T14:55:38.698Z,26.39
2023-04-10T14:58:09.074Z,24.94
2023-04-10T15:00:37.257Z,24.95
2023-04-10T15:03:06.244Z,24.55
2023-04-10T15:05:36.319Z,23.81
2023-04-10T15:08:04.582Z,23.41
2023-04-10T15:10:32.836Z,23.27
2023-04-10T15:13:00.675Z,23.26
2023-04-10T15:15:28.985Z,22.60
2023-04-10T15:17:57.090Z,22.06
2023-04-10T15:20:25.396Z,22.21
2023-04-10T15:22:54.478Z,22.44
2023-04-10T15:25:22.343Z,22.86
2023-04-10T15:27:50.196Z,23.29
2023-04-10T15:30:18.704Z,23.25
2023-04-10T15:32:46.638Z,23.15
2023-04-10T15:35:14.734Z,22.97
2023-04-10T15:37:42.556Z,23.12
2023-04-10T15:40:11.902Z,23.11
2023-04-10T15:42:39.952Z,23.24
2023-04-10T15:45:08.928Z,23.79
2023-04-10T15:47:36.783Z,24.10
2023-04-10T15:50:05.157Z,24.93
2023-04-10T15:52:34.094Z,25.80
2023-04-10T15:55:02.024Z,26.30
2023-04-10T15:57:30.924Z,25.37
2023-04-10T16:00:00.716Z,24.84
2023-04-10T16:02:28.915Z,25.01
2023-04-10T16:04:56.948Z,25.48
2023-04-10T16:07:25.021Z,25.72
2023-04-10T16:09:55.078Z,26.10
2023-04-10T16:12:22.842Z,24.15
2023-04-10T16:14:52.139Z,23.08
2023-04-10T16:17:20.100Z,22.20
2023-04-10T16:19:47.950Z,21.68
2023-04-10T16:22:15.887Z,21.03
2023-04-10T16:24:43.608Z,20.52
2023-04-10T16:27:11.466Z,20.50
2023-04-10T16:29:39.350Z,20.49
2023-04-10T16:32:09.197Z,20.36
2023-04-10T16:34:36.991Z,20.05
2023-04-10T16:37:04.970Z,20.08
2023-04-10T16:39:33.492Z,20.07
2023-04-10T16:42:03.468Z,20.03
2023-04-10T16:44:31.398Z,20.04
2023-04-10T16:46:59.013Z,19.85
2023-04-10T16:49:28.646Z,19.78
2023-04-10T16:51:56.318Z,19.88
2023-04-10T16:54:24.072Z,20.00
2023-04-10T16:56:51.844Z,20.13
2023-04-10T16:59:19.667Z,20.05
2023-04-10T17:01:48.023Z,20.13
2023-04-10T17:04:18.258Z,20.12
2023-04-10T17:06:47.553Z,20.05
2023-04-10T17:09:15.792Z,19.78
2023-04-10T17:11:44.248Z,19.61
2023-04-10T17:14:13.708Z,19.58
2023-04-10T17:16:41.901Z,19.26
2023-04-10T17:19:12.327Z,19.30
2023-04-10T17:21:40.473Z,19.40
2023-04-10T17:24:10.273Z,19.34
2023-04-10T17:26:38.413Z,19.47
2023-04-10T17:29:09.472Z,19.42
2023-04-10T17:31:37.896Z,19.34
2023-04-10T17:34:06.357Z,19.06
2023-04-10T17:36:35.090Z,18.80
2023-04-10T17:39:03.449Z,18.65
2023-04-10T17:41:33.124Z,18.49
2023-04-10T17:44:04.701Z,18.34
2023-04-10T17:46:33.389Z,18.25
2023-04-10T17:49:01.932Z,18.13
2023-04-10T17:51:30.264Z,17.95
2023-04-10T17:53:58.539Z,17.90
2023-04-10T17:56:26.610Z,17.69
2023-04-10T17:58:56.785Z,17.63
2023-04-10T18:01:30.345Z,17.59
2023-04-10T18:03:59.195Z,17.56
2023-04-10T18:06:31.844Z,17.51
2023-04-10T18:08:59.945Z,17.47
2023-04-10T18:11:28.871Z,17.48
2023-04-10T18:14:02.538Z,17.59
2023-04-10T18:16:31.182Z,17.65
2023-04-10T18:19:06.182Z,17.63
2023-04-10T18:21:42.218Z,17.62
2023-04-10T18:24:11.204Z,17.58
2023-04-10T18:26:39.213Z,17.45
2023-04-10T18:29:08.814Z,17.34
2023-04-10T18:31:36.554Z,17.03
2023-04-10T18:34:08.282Z,17.08
2023-04-10T18:36:37.050Z,16.96
2023-04-10T18:39:07.169Z,16.96
2023-04-10T18:41:35.466Z,16.99
2023-04-10T18:44:06.934Z,16.89
2023-04-10T18:46:38.033Z,16.84
2023-04-10T18:49:06.298Z,16.90
2023-04-10T18:51:35.611Z,16.94
2023-04-10T18:54:03.852Z,16.84
2023-04-10T18:56:31.610Z,16.76
2023-04-10T18:58:59.598Z,16.69
2023-04-10T19:01:28.714Z,16.75
2023-04-10T19:03:58.905Z,16.87
2023-04-10T19:06:27.088Z,16.80
2023-04-10T19:08:56.050Z,16.74
2023-04-10T19:11:26.029Z,16.66
2023-04-10T19:13:54.524Z,16.56
2023-04-10T19:16:22.958Z,16.61
2023-04-10T19:18:51.663Z,16.68
2023-04-10T19:21:20.980Z,16.83
2023-04-10T19:23:50.154Z,16.77
2023-04-10T19:26:20.255Z,16.60
2023-04-10T19:28:48.289Z,16.64
2023-04-10T19:31:16.639Z,16.67
2023-04-10T19:33:44.403Z,16.65
2023-04-10T19:36:12.743Z,16.54
2023-04-10T19:38:44.580Z,16.67
2023-04-10T19:41:16.271Z,16.70
2023-04-10T19:43:44.544Z,16.68
2023-04-10T19:46:19.120Z,16.60
2023-04-10T19:48:47.582Z,16.66
2023-04-10T19:51:15.765Z,16.64
2023-04-10T19:53:45.410Z,16.77
2023-04-10T19:56:13.159Z,16.77
2023-04-10T19:58:42.593Z,16.96
2023-04-10T20:01:12.311Z,16.98
2023-04-10T20:03:41.107Z,17.00
2023-04-10T20:06:08.918Z,16.88
2023-04-10T20:08:36.909Z,16.66
2023-04-10T20:11:06.989Z,16.48
2023-04-10T20:13:35.679Z,16.47
2023-04-10T20:16:04.018Z,16.46
2023-04-10T20:18:32.113Z,16.43
2023-04-10T20:20:59.991Z,16.27
2023-04-10T20:23:28.002Z,16.26
2023-04-10T20:25:56.002Z,16.38
2023-04-10T20:28:25.621Z,16.55
2023-04-10T20:30:53.600Z,16.53
2023-04-10T20:33:21.367Z,16.56
2023-04-10T20:35:49.279Z,16.52
2023-04-10T20:38:19.232Z,16.40
2023-04-10T20:40:47.133Z,16.16
2023-04-10T20:43:15.308Z,16.08
2023-04-10T20:45:44.672Z,15.97
2023-04-10T20:48:12.727Z,15.79
2023-04-10T20:50:43.090Z,15.70
2023-04-10T20:53:12.742Z,15.74
2023-04-10T20:55:40.612Z,15.86
2023-04-10T20:58:08.670Z,15.88
2023-04-10T21:00:37.534Z,16.07
2023-04-10T21:03:07.002Z,15.94
2023-04-10T21:05:35.019Z,15.90
2023-04-10T21:08:03.272Z,15.79
2023-04-10T21:10:31.417Z,15.85
2023-04-10T21:12:59.226Z,15.92
2023-04-10T21:15:26.860Z,15.88
2023-04-10T21:17:54.677Z,15.81
2023-04-10T21:20:29.384Z,15.76
2023-04-10T21:22:57.115Z,15.75
2023-04-10T21:25:24.797Z,15.62
2023-04-10T21:27:52.884Z,15.76
2023-04-10T21:30:22.080Z,15.76
2023-04-10T21:32:50.153Z,15.87
2023-04-10T21:35:18.263Z,15.88
2023-04-10T21:37:47.704Z,15.75
2023-04-10T21:40:15.561Z,15.81
2023-04-10T21:42:43.600Z,15.72
2023-04-10T21:45:12.146Z,15.53
2023-04-10T21:47:40.107Z,15.49
2023-04-10T21:50:08.474Z,15.54
2023-04-10T21:52:36.409Z,15.49
2023-04-10T21:55:06.508Z,15.53
2023-04-10T21:57:34.905Z,15.60
2023-04-10T22:00:03.331Z,15.67
2023-04-10T22:02:33.527Z,15.64
2023-04-10T22:05:02.425Z,15.76
2023-04-10T22:07:30.671Z,15.80
2023-04-10T22:09:58.675Z,15.84
2023-04-10T22:12:28.322Z,15.42
2023-04-10T22:14:56.470Z,14.63
2023-04-10T22:17:24.826Z,14.19
2023-04-10T22:19:53.124Z,13.98
2023-04-10T22:22:21.245Z,13.98
2023-04-10T22:24:49.393Z,14.00
2023-04-10T22:27:17.730Z,13.75
2023-04-10T22:29:56.199Z,13.59
2023-04-10T22:32:30.714Z,13.21
2023-04-10T22:35:00.279Z,12.99
2023-04-10T22:37:28.556Z,12.77
2023-04-10T22:39:57.021Z,12.44
2023-04-10T22:42:24.949Z,12.25
2023-04-10T22:44:54.502Z,12.01
2023-04-10T22:47:22.486Z,11.87
2023-04-10T22:49:50.407Z,11.81
2023-04-10T22:52:18.107Z,11.84
2023-04-10T22:54:45.833Z,11.94
2023-04-10T22:57:13.614Z,12.01
2023-04-10T22:59:41.431Z,12.14
2023-04-10T23:02:10.757Z,12.22
2023-04-10T23:04:38.644Z,12.06
2023-04-10T23:07:06.679Z,12.04
2023-04-10T23:09:34.509Z,12.14
2023-04-10T23:12:02.647Z,12.30
2023-04-10T23:14:30.596Z,12.48
2023-04-10T23:16:58.336Z,12.55
2023-04-10T23:19:27.506Z,12.42
2023-04-10T23:21:55.348Z,12.37
2023-04-10T23:24:23.165Z,12.35
2023-04-10T23:26:51.107Z,12.29
2023-04-10T23:29:19.183Z,12.24
2023-04-10T23:31:46.986Z,12.22
2023-04-10T23:34:14.956Z,12.13
2023-04-10T23:36:44.359Z,12.12
2023-04-10T23:39:12.547Z,12.04
2023-04-10T23:41:40.347Z,12.08
2023-04-10T23:44:08.020Z,12.08
2023-04-10T23:46:36.087Z,12.12
2023-04-10T23:49:04.024Z,12.10
2023-04-10T23:51:33.331Z,11.97
2023-04-10T23:54:02.609Z,11.85
2023-04-10T23:56:31.169Z,11.73
2023-04-10T23:58:59.318Z,11.64
